createdAt,value
2022-10-01T00:01:25.544Z,4.27
2022-10-01T00:03:53.023Z,3.87
2022-10-01T00:06:21.340Z,6.10
2022-10-01T00:08:49.390Z,5.30
2022-10-01T00:11:23.032Z,3.53
2022-10-01T00:13:50.566Z,3.40
2022-10-01T00:16:18.179Z,3.23
2022-10-01T00:18:45.665Z,4.20
2022-10-01T00:21:13.969Z,3.87
2022-10-01T00:23:41.552Z,4.00
2022-10-01T00:26:09.086Z,3.43
2022-10-01T00:28:36.612Z,3.83
2022-10-01T00:31:04.982Z,5.40
2022-10-01T00:33:32.470Z,5.47
2022-10-01T00:35:59.995Z,3.83
2022-10-01T00:38:28.405Z,2.53
2022-10-01T00:40:55.933Z,3.63
2022-10-01T00:43:24.244Z,5.60
2022-10-01T00:45:51.860Z,2.43
2022-10-01T00:48:19.362Z,3.63
2022-10-01T00:50:46.916Z,3.97
2022-10-01T00:53:14.520Z,2.93
2022-10-01T00:55:42.044Z,3.23
2022-10-01T00:58:09.628Z,4.37
2022-10-01T01:00:37.155Z,1.97
2022-10-01T01:03:04.698Z,5.93
2022-10-01T01:05:32.233Z,4.10
2022-10-01T01:07:59.925Z,3.30
2022-10-01T01:10:27.459Z,3.20
2022-10-01T01:13:13.948Z,6.50
2022-10-01T01:15:47.724Z,3.50
2022-10-01T01:18:24.229Z,3.77
2022-10-01T01:21:06.545Z,6.45
2022-10-01T01:23:37.535Z,10.57
2022-10-01T01:26:11.135Z,2.43
2022-10-01T01:28:41.752Z,5.80
2022-10-01T01:31:09.310Z,4.90
2022-10-01T01:33:37.628Z,4.70
2022-10-01T01:36:05.164Z,3.67
2022-10-01T01:38:38.407Z,2.97
2022-10-01T01:41:06.713Z,6.20
2022-10-01T01:43:34.265Z,5.70
2022-10-01T01:46:01.815Z,5.77
2022-10-01T01:48:29.335Z,3.93
2022-10-01T01:50:59.577Z,3.30
2022-10-01T01:53:27.880Z,5.15
2022-10-01T01:55:55.414Z,2.93
2022-10-01T01:58:23.760Z,5.23
2022-10-01T02:00:51.292Z,3.23
2022-10-01T02:03:18.826Z,4.67
2022-10-01T02:05:46.392Z,2.60
2022-10-01T02:08:25.821Z,3.50
2022-10-01T02:10:56.265Z,3.60
2022-10-01T02:13:35.778Z,3.30
2022-10-01T02:16:28.206Z,3.73
2022-10-01T02:19:01.707Z,3.30
2022-10-01T02:21:41.545Z,2.30
2022-10-01T02:24:18.287Z,4.03
2022-10-01T02:26:45.824Z,3.13
2022-10-01T02:29:13.390Z,3.63
2022-10-01T02:31:41.004Z,4.90
2022-10-01T02:34:12.348Z,3.43
2022-10-01T02:36:36.770Z,6.80
2022-10-01T02:39:04.293Z,2.83
2022-10-01T02:41:32.201Z,2.67
2022-10-01T02:44:02.011Z,3.63
2022-10-01T02:46:38.752Z,3.37
2022-10-01T02:49:07.065Z,3.53
2022-10-01T02:51:46.346Z,5.23
2022-10-01T02:54:22.575Z,2.93
2022-10-01T02:57:08.365Z,3.03
2022-10-01T02:59:35.919Z,2.93
2022-10-01T03:02:03.570Z,4.40
2022-10-01T03:04:30.998Z,4.60
2022-10-01T03:06:59.342Z,3.73
2022-10-01T03:09:26.876Z,4.40
2022-10-01T03:11:54.409Z,6.87
2022-10-01T03:14:21.944Z,3.77
2022-10-01T03:16:50.238Z,4.67
2022-10-01T03:19:17.772Z,5.70
2022-10-01T03:21:45.316Z,6.17
2022-10-01T03:24:12.862Z,5.10
2022-10-01T03:26:40.377Z,5.67
2022-10-01T03:29:07.931Z,3.87
2022-10-01T03:31:35.723Z,4.83
2022-10-01T03:34:02.993Z,6.43
2022-10-01T03:36:30.544Z,4.77
2022-10-01T03:38:58.059Z,3.03
2022-10-01T03:41:26.362Z,4.47
2022-10-01T03:43:58.304Z,5.07
2022-10-01T03:46:21.433Z,3.50
2022-10-01T03:48:48.955Z,2.83
2022-10-01T03:51:19.789Z,3.90
2022-10-01T03:53:44.075Z,3.83
2022-10-01T03:56:11.610Z,6.07
2022-10-01T03:58:39.164Z,3.47
2022-10-01T04:01:06.698Z,2.40
2022-10-01T04:03:34.991Z,3.93
2022-10-01T04:06:02.555Z,1.93
2022-10-01T04:08:30.099Z,2.57
2022-10-01T04:10:57.625Z,3.20
2022-10-01T04:13:25.189Z,3.63
2022-10-01T04:15:52.775Z,5.83
2022-10-01T04:18:20.258Z,4.53
2022-10-01T04:20:47.803Z,2.97
2022-10-01T04:23:15.328Z,2.37
2022-10-01T04:25:42.863Z,2.22
2022-10-01T04:28:10.486Z,1.83
2022-10-01T04:30:37.991Z,4.33
2022-10-01T04:33:05.517Z,1.57
2022-10-01T04:35:33.076Z,2.23
2022-10-01T04:38:06.198Z,2.03
2022-10-01T04:40:33.712Z,1.70
2022-10-01T04:43:01.287Z,3.27
2022-10-01T04:45:28.822Z,2.17
2022-10-01T04:47:56.360Z,3.03
2022-10-01T04:50:24.682Z,3.23
2022-10-01T04:52:52.223Z,1.27
2022-10-01T04:55:19.765Z,0.83
2022-10-01T04:57:48.141Z,1.43
2022-10-01T05:00:16.433Z,1.43
2022-10-01T05:02:46.823Z,1.80
2022-10-01T05:05:14.388Z,0.83
2022-10-01T05:07:41.912Z,0.87
2022-10-01T05:10:09.555Z,1.13
2022-10-01T05:12:37.109Z,0.50
2022-10-01T05:15:04.636Z,1.17
2022-10-01T05:17:32.929Z,0.83
2022-10-01T05:20:00.513Z,3.90
2022-10-01T05:22:28.048Z,1.70
2022-10-01T05:24:55.582Z,0.57
2022-10-01T05:27:23.896Z,0.50
2022-10-01T05:29:51.420Z,0.57
2022-10-01T05:32:19.713Z,1.20
2022-10-01T05:34:52.661Z,11.67
2022-10-01T05:37:14.803Z,0.90
2022-10-01T05:39:42.338Z,2.60
2022-10-01T05:42:09.921Z,0.70
2022-10-01T05:44:40.252Z,0.43
2022-10-01T05:47:08.557Z,0.70
2022-10-01T05:49:36.119Z,0.57
2022-10-01T05:52:03.657Z,3.17
2022-10-01T05:54:31.957Z,0.50
2022-10-01T05:56:59.521Z,0.20
2022-10-01T05:59:31.603Z,1.23
2022-10-01T06:01:55.408Z,0.30
2022-10-01T06:04:22.914Z,1.47
2022-10-01T06:06:50.477Z,3.60
2022-10-01T06:09:18.750Z,0.70
2022-10-01T06:11:46.324Z,0.63
2022-10-01T06:14:13.851Z,1.30
2022-10-01T06:16:41.430Z,2.90
2022-10-01T06:19:08.968Z,2.03
2022-10-01T06:21:36.976Z,0.43
2022-10-01T06:24:04.030Z,0.40
2022-10-01T06:26:31.582Z,0.90
2022-10-01T06:28:59.110Z,1.13
2022-10-01T06:31:26.685Z,0.70
2022-10-01T06:33:55.273Z,0.20
2022-10-01T06:36:22.806Z,0.33
2022-10-01T06:38:50.341Z,0.70
2022-10-01T06:41:18.257Z,0.60
2022-10-01T06:43:45.792Z,3.10
2022-10-01T06:46:13.336Z,0.20
2022-10-01T06:48:40.891Z,1.40
2022-10-01T06:51:09.205Z,0.60
2022-10-01T06:53:36.729Z,0.30
2022-10-01T06:56:06.514Z,0.40
2022-10-01T06:58:34.098Z,0.30
2022-10-01T07:01:01.739Z,0.10
2022-10-01T07:03:29.210Z,0.20
2022-10-01T07:05:56.743Z,0.40
2022-10-01T07:08:24.281Z,0.23
2022-10-01T07:10:51.845Z,0.10
2022-10-01T07:13:19.390Z,0.10
2022-10-01T07:15:46.925Z,0.23
2022-10-01T07:18:15.277Z,0.13
2022-10-01T07:20:42.802Z,0.20
2022-10-01T07:23:13.262Z,0.50
2022-10-01T07:25:40.867Z,0.30
2022-10-01T07:28:08.421Z,0.10
2022-10-01T07:30:36.693Z,0.70
2022-10-01T07:33:04.591Z,0.10
2022-10-01T07:35:32.463Z,0.87
2022-10-01T07:37:59.985Z,0.67
2022-10-01T07:40:27.644Z,0.32
2022-10-01T07:42:57.852Z,0.30
2022-10-01T07:45:26.151Z,0.30
2022-10-01T07:47:56.130Z,0.60
2022-10-01T07:50:24.581Z,1.23
2022-10-01T07:52:52.724Z,0.83
2022-10-01T07:55:20.879Z,0.27
2022-10-01T07:57:51.368Z,0.53
2022-10-01T08:00:18.893Z,0.43
2022-10-01T08:02:49.490Z,0.13
2022-10-01T08:05:20.510Z,1.80
2022-10-01T08:07:48.042Z,0.30
2022-10-01T08:10:15.990Z,3.37
2022-10-01T08:12:43.521Z,2.30
2022-10-01T08:15:11.817Z,0.17
2022-10-01T08:17:39.392Z,0.43
2022-10-01T08:20:07.045Z,0.43
2022-10-01T08:22:38.579Z,0.60
2022-10-01T08:25:02.911Z,18.60
2022-10-01T08:27:30.445Z,4.00
2022-10-01T08:29:57.970Z,2.22
2022-10-01T08:32:25.544Z,2.15
2022-10-01T08:34:56.553Z,0.63
2022-10-01T08:37:21.392Z,0.40
2022-10-01T08:39:48.956Z,2.93
2022-10-01T08:42:22.300Z,0.23
2022-10-01T08:44:50.594Z,1.50
2022-10-01T08:47:21.987Z,1.30
2022-10-01T08:49:49.512Z,1.60
2022-10-01T08:52:23.063Z,0.17
2022-10-01T08:55:03.100Z,0.50
2022-10-01T08:57:30.684Z,0.75
2022-10-01T09:00:01.113Z,0.90
2022-10-01T09:02:34.595Z,1.70
2022-10-01T09:05:04.851Z,0.73
2022-10-01T09:07:56.948Z,3.47
2022-10-01T09:10:46.037Z,1.97
2022-10-01T09:13:35.560Z,2.80
2022-10-01T09:16:27.383Z,6.50
2022-10-01T09:19:06.953Z,1.60
2022-10-01T09:21:46.579Z,2.10
2022-10-01T09:24:17.018Z,3.50
2022-10-01T09:26:44.562Z,4.10
2022-10-01T09:29:12.107Z,1.70
2022-10-01T09:31:43.258Z,2.47
2022-10-01T09:34:16.826Z,3.87
2022-10-01T09:37:17.257Z,4.53
2022-10-01T09:40:00.545Z,1.43
2022-10-01T09:42:28.130Z,1.57
2022-10-01T09:44:56.442Z,6.53
2022-10-01T09:47:23.977Z,6.47
2022-10-01T09:49:52.319Z,9.90
2022-10-01T09:52:28.769Z,5.93
2022-10-01T09:54:59.036Z,3.37
2022-10-01T09:57:39.115Z,2.93
2022-10-01T10:00:12.508Z,1.60
2022-10-01T10:02:48.359Z,3.27
2022-10-01T10:05:10.108Z,2.37
2022-10-01T10:07:37.672Z,4.90
2022-10-01T10:10:10.957Z,3.00
2022-10-01T10:12:38.505Z,5.10
2022-10-01T10:15:09.178Z,5.33
2022-10-01T10:17:36.704Z,5.57
2022-10-01T10:20:04.238Z,4.40
2022-10-01T10:22:31.812Z,3.90
2022-10-01T10:24:59.336Z,4.23
2022-10-01T10:27:27.655Z,3.53
2022-10-01T10:30:07.245Z,3.53
2022-10-01T10:32:34.781Z,5.63
2022-10-01T10:35:03.498Z,4.20
2022-10-01T10:37:30.333Z,3.67
2022-10-01T10:39:57.857Z,4.70
2022-10-01T10:42:25.392Z,5.37
2022-10-01T10:44:53.222Z,3.07
2022-10-01T10:47:21.526Z,5.13
2022-10-01T10:49:55.361Z,3.00
2022-10-01T10:52:22.955Z,4.60
2022-10-01T10:54:50.490Z,6.90
2022-10-01T10:57:21.208Z,4.33
2022-10-01T11:00:00.765Z,1.53
2022-10-01T11:02:31.081Z,3.30
2022-10-01T11:04:58.510Z,1.77
2022-10-01T11:07:26.103Z,1.53
2022-10-01T11:10:11.630Z,2.20
2022-10-01T11:12:54.738Z,3.10
2022-10-01T11:15:27.688Z,5.07
2022-10-01T11:18:16.078Z,0.90
2022-10-01T11:20:53.469Z,2.30
2022-10-01T11:23:52.510Z,1.60
2022-10-01T11:26:53.584Z,0.50
2022-10-01T11:29:26.600Z,1.00
2022-10-01T11:31:54.893Z,2.23
2022-10-01T11:34:43.370Z,1.83
2022-10-01T11:37:19.433Z,4.77
2022-10-01T11:39:46.977Z,5.10
2022-10-01T11:42:17.418Z,3.57
2022-10-01T11:45:00.559Z,8.67
2022-10-01T11:47:24.369Z,3.93
2022-10-01T11:49:55.489Z,8.37
2022-10-01T11:52:50.307Z,3.23
2022-10-01T11:55:42.624Z,4.93
2022-10-01T11:58:46.905Z,3.87
2022-10-01T12:01:14.430Z,4.87
2022-10-01T12:03:54.468Z,4.40
2022-10-01T12:06:34.234Z,4.40
2022-10-01T12:08:58.432Z,5.00
2022-10-01T12:11:29.154Z,5.53
2022-10-01T12:13:59.354Z,9.10
2022-10-01T12:16:45.955Z,12.80
2022-10-01T12:19:14.257Z,10.03
2022-10-01T12:21:41.782Z,8.13
2022-10-01T12:24:12.303Z,12.17
2022-10-01T12:26:45.536Z,7.50
2022-10-01T12:29:13.062Z,7.93
2022-10-01T12:31:40.701Z,9.80
2022-10-01T12:34:17.764Z,6.60
2022-10-01T12:37:00.378Z,7.23
2022-10-01T12:39:36.539Z,11.47
2022-10-01T12:42:24.938Z,10.17
2022-10-01T12:44:56.038Z,9.40
2022-10-01T12:47:23.591Z,12.13
2022-10-01T12:49:56.680Z,10.23
2022-10-01T12:52:42.291Z,14.87
2022-10-01T12:55:09.866Z,12.53
2022-10-01T12:57:56.699Z,12.33
2022-10-01T13:00:24.273Z,5.93
2022-10-01T13:02:57.282Z,8.37
2022-10-01T13:05:48.861Z,10.23
2022-10-01T13:08:24.844Z,18.92
2022-10-01T13:10:55.176Z,13.23
2022-10-01T13:13:28.273Z,9.53
2022-10-01T13:15:55.818Z,10.97
2022-10-01T13:18:26.965Z,11.93
2022-10-01T13:21:15.462Z,10.27
2022-10-01T13:23:43.017Z,9.33
2022-10-01T13:26:18.990Z,11.00
2022-10-01T13:28:58.606Z,10.37
2022-10-01T13:31:31.920Z,11.43
2022-10-01T13:33:59.406Z,9.73
2022-10-01T13:36:29.540Z,6.60
2022-10-01T13:38:57.075Z,9.77
2022-10-01T13:41:30.374Z,10.83
2022-10-01T13:44:01.676Z,9.20
2022-10-01T13:46:32.063Z,9.93
2022-10-01T13:49:00.241Z,8.83
2022-10-01T13:51:39.249Z,12.10
2022-10-01T13:54:06.780Z,11.83
2022-10-01T13:56:35.369Z,14.17
2022-10-01T13:59:02.668Z,10.53
2022-10-01T14:01:30.307Z,10.63
2022-10-01T14:04:16.132Z,14.33
2022-10-01T14:06:46.757Z,11.47
2022-10-01T14:09:32.380Z,10.43
2022-10-01T14:12:27.236Z,12.37
2022-10-01T14:15:15.454Z,4.43
2022-10-01T14:17:42.985Z,10.37
2022-10-01T14:20:16.759Z,6.57
2022-10-01T14:23:09.254Z,7.93
2022-10-01T14:25:45.458Z,8.03
2022-10-01T14:28:50.296Z,5.80
2022-10-01T14:31:23.661Z,5.60
2022-10-01T14:33:59.701Z,8.30
2022-10-01T14:36:29.668Z,7.43
2022-10-01T14:39:03.111Z,7.05
2022-10-01T14:41:30.765Z,8.60
2022-10-01T14:43:58.220Z,8.27
2022-10-01T14:46:26.568Z,6.27
2022-10-01T14:48:57.069Z,3.80
2022-10-01T14:51:24.604Z,5.67
2022-10-01T14:53:52.149Z,5.43
2022-10-01T14:56:20.490Z,3.50
2022-10-01T14:58:48.016Z,6.00
2022-10-01T15:01:21.300Z,4.95
2022-10-01T15:03:48.919Z,5.10
2022-10-01T15:06:16.390Z,6.33
2022-10-01T15:08:44.694Z,2.93
2022-10-01T15:11:12.276Z,6.30
2022-10-01T15:13:39.811Z,8.17
2022-10-01T15:16:19.665Z,5.45
2022-10-01T15:18:53.105Z,6.37
2022-10-01T15:21:20.641Z,5.47
2022-10-01T15:23:48.253Z,6.20
2022-10-01T15:26:15.779Z,6.63
2022-10-01T15:28:43.305Z,5.63
2022-10-01T15:31:11.196Z,5.93
2022-10-01T15:33:38.707Z,6.47
2022-10-01T15:36:06.242Z,5.33
2022-10-01T15:38:34.596Z,6.67
2022-10-01T15:41:26.787Z,8.20
2022-10-01T15:43:32.637Z,8.73
2022-10-01T15:46:06.140Z,11.10
2022-10-01T15:48:34.396Z,7.77
2022-10-01T15:51:02.689Z,4.77
2022-10-01T15:53:30.260Z,5.20
2022-10-01T15:55:57.794Z,7.20
2022-10-01T15:58:31.305Z,6.43
2022-10-01T16:01:07.432Z,4.97
2022-10-01T16:03:34.961Z,8.03
2022-10-01T16:06:02.495Z,8.77
2022-10-01T16:08:49.083Z,6.00
2022-10-01T16:11:22.851Z,6.50
2022-10-01T16:13:50.407Z,11.03
2022-10-01T16:16:18.000Z,13.13
2022-10-01T16:18:49.255Z,8.50
2022-10-01T16:21:16.780Z,11.50
2022-10-01T16:23:45.125Z,5.80
2022-10-01T16:26:28.765Z,6.03
2022-10-01T16:29:14.827Z,8.40
2022-10-01T16:31:42.476Z,9.00
2022-10-01T16:34:12.378Z,8.10
2022-10-01T16:36:40.704Z,8.63
2022-10-01T16:39:08.238Z,13.53
2022-10-01T16:41:35.783Z,8.80
2022-10-01T16:44:03.378Z,7.03
2022-10-01T16:46:30.912Z,6.13
2022-10-01T16:48:58.437Z,8.93
2022-10-01T16:51:26.789Z,10.67
2022-10-01T16:53:54.323Z,10.03
2022-10-01T16:56:26.897Z,8.67
2022-10-01T16:58:49.442Z,8.67
2022-10-01T17:01:17.040Z,9.90
2022-10-01T17:03:44.533Z,12.57
2022-10-01T17:06:12.115Z,8.13
2022-10-01T17:08:39.660Z,9.20
2022-10-01T17:11:11.876Z,7.57
2022-10-01T17:13:34.809Z,5.73
2022-10-01T17:16:02.443Z,11.17
2022-10-01T17:18:29.906Z,9.77
2022-10-01T17:20:57.481Z,9.37
2022-10-01T17:23:25.016Z,9.67
2022-10-01T17:25:52.560Z,12.68
2022-10-01T17:28:20.325Z,8.33
2022-10-01T17:30:47.679Z,10.63
2022-10-01T17:33:15.204Z,8.40
2022-10-01T17:35:45.526Z,6.53
2022-10-01T17:38:13.062Z,10.40
2022-10-01T17:40:40.595Z,13.07
2022-10-01T17:43:08.182Z,13.67
2022-10-01T17:45:35.727Z,13.13
2022-10-01T17:48:03.238Z,12.17
2022-10-01T17:50:31.574Z,12.10
2022-10-01T17:52:59.126Z,12.23
2022-10-01T17:55:26.672Z,18.12
2022-10-01T17:57:54.254Z,13.10
2022-10-01T18:00:21.780Z,10.63
2022-10-01T18:02:49.361Z,14.43
2022-10-01T18:05:17.656Z,18.07
2022-10-01T18:07:45.243Z,7.97
2022-10-01T18:10:13.553Z,9.27
2022-10-01T18:12:41.157Z,12.40
2022-10-01T18:15:08.830Z,12.37
2022-10-01T18:17:36.832Z,9.00
2022-10-01T18:20:03.947Z,10.18
2022-10-01T18:22:31.482Z,11.95
2022-10-01T18:24:59.016Z,11.30
2022-10-01T18:27:26.591Z,10.07
2022-10-01T18:29:54.132Z,9.87
2022-10-01T18:32:21.651Z,8.67
2022-10-01T18:34:53.007Z,10.80
2022-10-01T18:37:37.619Z,7.90
2022-10-01T18:40:06.490Z,12.07
2022-10-01T18:42:39.773Z,6.23
2022-10-01T18:45:07.307Z,13.93
2022-10-01T18:47:47.603Z,13.67
2022-10-01T18:50:24.146Z,10.97
2022-10-01T18:53:15.863Z,11.20
2022-10-01T18:55:53.343Z,10.20
2022-10-01T18:58:46.329Z,11.97
2022-10-01T19:01:32.314Z,11.77
2022-10-01T19:04:18.125Z,13.47
2022-10-01T19:07:06.380Z,11.93
2022-10-01T19:09:45.905Z,15.27
2022-10-01T19:12:34.608Z,10.87
2022-10-01T19:15:08.967Z,12.17
2022-10-01T19:18:01.058Z,9.97
2022-10-01T19:20:46.096Z,14.53
2022-10-01T19:23:22.849Z,13.10
2022-10-01T19:26:08.502Z,22.17
2022-10-01T19:28:45.399Z,16.93
2022-10-01T19:31:15.705Z,15.93
2022-10-01T19:33:43.226Z,13.93
2022-10-01T19:36:10.770Z,14.70
2022-10-01T19:38:38.370Z,13.45
2022-10-01T19:41:23.691Z,15.53
2022-10-01T19:43:51.255Z,14.90
2022-10-01T19:46:37.196Z,12.13
2022-10-01T19:49:10.379Z,22.60
2022-10-01T19:51:47.051Z,19.53
2022-10-01T19:54:20.484Z,14.77
2022-10-01T19:56:53.719Z,12.23
2022-10-01T19:59:21.256Z,18.67
2022-10-01T20:02:02.667Z,18.67
2022-10-01T20:04:41.176Z,20.37
2022-10-01T20:07:11.434Z,12.83
2022-10-01T20:09:45.720Z,16.47
2022-10-01T20:12:16.156Z,14.53
2022-10-01T20:15:07.676Z,18.62
2022-10-01T20:17:49.882Z,10.00
2022-10-01T20:20:23.176Z,17.77
2022-10-01T20:23:08.739Z,13.17
2022-10-01T20:25:57.128Z,17.77
2022-10-01T20:28:30.922Z,14.03
2022-10-01T20:31:01.236Z,12.10
2022-10-01T20:33:37.564Z,10.40
2022-10-01T20:36:13.861Z,9.97
2022-10-01T20:38:44.252Z,10.97
2022-10-01T20:41:14.550Z,13.43
2022-10-01T20:43:57.851Z,14.33
2022-10-01T20:46:28.764Z,11.73
2022-10-01T20:48:59.113Z,17.47
2022-10-01T20:51:27.456Z,12.33
2022-10-01T20:53:55.001Z,13.33
2022-10-01T20:56:25.135Z,11.03
2022-10-01T20:59:04.268Z,18.23
2022-10-01T21:01:31.803Z,11.47
2022-10-01T21:04:02.373Z,12.17
2022-10-01T21:06:32.960Z,13.57
2022-10-01T21:09:00.217Z,14.43
2022-10-01T21:11:33.346Z,12.57
2022-10-01T21:14:06.423Z,10.37
2022-10-01T21:16:38.440Z,13.77
2022-10-01T21:19:19.698Z,11.93
2022-10-01T21:21:59.884Z,12.35
2022-10-01T21:24:42.110Z,14.03
2022-10-01T21:27:27.947Z,7.17
2022-10-01T21:30:10.922Z,13.50
2022-10-01T21:33:00.077Z,13.20
2022-10-01T21:35:52.464Z,10.90
2022-10-01T21:38:28.556Z,10.10
2022-10-01T21:40:59.891Z,8.43
2022-10-01T21:43:37.530Z,9.07
2022-10-01T21:46:32.401Z,10.70
2022-10-01T21:49:08.280Z,7.27
2022-10-01T21:51:41.328Z,10.90
2022-10-01T21:54:39.446Z,6.93
2022-10-01T21:57:25.039Z,4.03
2022-10-01T21:59:58.502Z,9.52
2022-10-01T22:02:47.442Z,7.65
2022-10-01T22:05:34.156Z,6.97
2022-10-01T22:08:04.359Z,9.90
2022-10-01T22:10:47.293Z,10.50
2022-10-01T22:13:14.848Z,7.37
2022-10-01T22:15:43.150Z,11.43
2022-10-01T22:18:13.107Z,9.07
2022-10-01T22:20:40.681Z,6.37
2022-10-01T22:23:08.220Z,8.07
2022-10-01T22:25:35.756Z,7.50
2022-10-01T22:28:09.356Z,7.77
2022-10-01T22:30:36.848Z,10.27
2022-10-01T22:33:13.341Z,12.30
2022-10-01T22:35:44.706Z,17.40
2022-10-01T22:38:14.979Z,17.67
2022-10-01T22:40:42.504Z,15.27
2022-10-01T22:43:10.097Z,16.27
2022-10-01T22:45:55.421Z,15.83
2022-10-01T22:48:50.027Z,16.63
2022-10-01T22:51:45.602Z,25.03
2022-10-01T22:54:34.405Z,15.37
2022-10-01T22:57:04.914Z,11.70
2022-10-01T22:59:40.885Z,12.00
2022-10-01T23:02:08.504Z,15.23
2022-10-01T23:04:47.859Z,15.73
2022-10-01T23:07:36.898Z,11.27
2022-10-01T23:10:10.419Z,15.73
2022-10-01T23:12:50.754Z,12.47
2022-10-01T23:15:30.251Z,17.17
2022-10-01T23:18:35.006Z,13.53
2022-10-01T23:21:14.266Z,15.17
2022-10-01T23:23:42.569Z,10.50
2022-10-01T23:26:16.071Z,10.90
2022-10-01T23:29:05.326Z,12.17
2022-10-01T23:31:53.673Z,15.30
2022-10-01T23:34:29.874Z,11.50
2022-10-01T23:37:03.032Z,11.97
2022-10-01T23:39:45.602Z,15.10
2022-10-01T23:42:34.256Z,9.83
2022-10-01T23:45:07.374Z,13.20
2022-10-01T23:47:53.596Z,14.52
2022-10-01T23:50:21.153Z,15.70
2022-10-01T23:52:51.304Z,11.33
2022-10-01T23:55:36.749Z,9.67
2022-10-01T23:58:04.274Z,13.43
